createdAt,value
2018-01-27T00:02:05.498Z,27.98
2018-01-27T00:04:33.865Z,26.85
2018-01-27T00:07:02.229Z,26.87
2018-01-27T00:09:31.393Z,26.15
2018-01-27T00:12:00.868Z,27.42
2018-01-27T00:14:29.265Z,27.95
2018-01-27T00:16:57.641Z,27.85
2018-01-27T00:19:26.409Z,27.67
2018-01-27T00:21:54.808Z,29.35
2018-01-27T00:24:23.183Z,26.92
2018-01-27T00:26:51.562Z,29.00
2018-01-27T00:29:19.938Z,31.55
2018-01-27T00:31:48.317Z,33.67
2018-01-27T00:34:16.677Z,43.47
2018-01-27T00:36:46.034Z,32.90
2018-01-27T00:39:15.697Z,28.70
2018-01-27T00:41:44.097Z,27.50
2018-01-27T00:44:13.151Z,27.23
2018-01-27T00:46:41.525Z,26.40
2018-01-27T00:49:10.113Z,29.63
2018-01-27T00:51:38.473Z,26.70
2018-01-27T00:54:06.847Z,27.25
2018-01-27T00:56:35.277Z,27.17
2018-01-27T00:59:04.152Z,28.52
2018-01-27T01:01:32.833Z,27.48
2018-01-27T01:04:01.365Z,26.85
2018-01-27T01:06:29.902Z,27.40
2018-01-27T01:08:58.326Z,26.77
2018-01-27T01:11:26.701Z,29.67
2018-01-27T01:13:55.242Z,24.40
2018-01-27T01:16:24.463Z,25.12
2018-01-27T01:18:52.837Z,25.05
2018-01-27T01:21:21.225Z,25.00
2018-01-27T01:23:49.594Z,25.65
2018-01-27T01:26:19.336Z,25.80
2018-01-27T01:28:48.158Z,27.30
2018-01-27T01:31:16.581Z,24.48
2018-01-27T01:33:45.034Z,23.75
2018-01-27T01:36:13.670Z,23.90
2018-01-27T01:38:42.089Z,24.20
2018-01-27T01:41:11.801Z,24.90
2018-01-27T01:43:46.867Z,26.23
2018-01-27T01:46:16.130Z,24.00
2018-01-27T01:48:45.674Z,23.50
2018-01-27T01:51:14.470Z,25.45
2018-01-27T01:53:43.071Z,24.05
2018-01-27T01:56:12.724Z,22.42
2018-01-27T01:58:41.172Z,23.40
2018-01-27T02:01:12.403Z,24.65
2018-01-27T02:03:41.845Z,22.60
2018-01-27T02:06:10.926Z,24.55
2018-01-27T02:08:40.082Z,26.60
2018-01-27T02:11:09.473Z,23.10
2018-01-27T02:13:38.143Z,22.73
2018-01-27T02:16:07.599Z,24.05
2018-01-27T02:18:36.847Z,23.75
2018-01-27T02:21:05.298Z,23.23
2018-01-27T02:23:34.810Z,22.52
2018-01-27T02:26:03.180Z,23.23
2018-01-27T02:28:31.797Z,24.83
2018-01-27T02:31:00.836Z,23.73
2018-01-27T02:33:29.981Z,23.30
2018-01-27T02:35:58.366Z,25.33
2018-01-27T02:38:26.732Z,23.70
2018-01-27T02:40:55.170Z,23.27
2018-01-27T02:43:24.297Z,23.08
2018-01-27T02:45:52.678Z,23.42
2018-01-27T02:48:21.977Z,26.45
2018-01-27T02:50:50.350Z,23.85
2018-01-27T02:53:18.740Z,24.55
2018-01-27T02:55:48.854Z,23.40
2018-01-27T02:58:17.353Z,22.42
2018-01-27T03:00:45.730Z,22.20
2018-01-27T03:03:14.101Z,24.58
2018-01-27T03:05:42.496Z,25.85
2018-01-27T03:08:10.872Z,23.58
2018-01-27T03:10:39.260Z,24.17
2018-01-27T03:13:07.627Z,23.90
2018-01-27T03:15:36.009Z,23.87
2018-01-27T03:18:04.418Z,23.60
2018-01-27T03:20:33.564Z,24.23
2018-01-27T03:23:01.952Z,23.55
2018-01-27T03:25:30.318Z,23.50
2018-01-27T03:27:58.753Z,24.87
2018-01-27T03:30:27.898Z,23.23
2018-01-27T03:32:56.272Z,25.85
2018-01-27T03:35:24.655Z,25.00
2018-01-27T03:37:53.028Z,25.20
2018-01-27T03:40:21.418Z,23.23
2018-01-27T03:42:49.938Z,26.10
2018-01-27T03:45:18.585Z,23.98
2018-01-27T03:47:46.953Z,24.90
2018-01-27T03:50:15.350Z,22.50
2018-01-27T03:52:43.741Z,24.37
2018-01-27T03:55:12.105Z,24.35
2018-01-27T03:57:40.725Z,23.45
2018-01-27T04:00:10.370Z,24.52
2018-01-27T04:02:39.388Z,24.02
2018-01-27T04:05:08.386Z,24.58
2018-01-27T04:07:37.254Z,24.50
2018-01-27T04:10:06.247Z,24.80
2018-01-27T04:12:35.565Z,25.33
2018-01-27T04:15:04.947Z,25.20
2018-01-27T04:17:33.975Z,26.17
2018-01-27T04:20:02.766Z,23.60
2018-01-27T04:22:31.733Z,26.33
2018-01-27T04:25:00.722Z,24.40
2018-01-27T04:27:29.810Z,24.00
2018-01-27T04:29:58.573Z,26.15
2018-01-27T04:32:27.326Z,23.67
2018-01-27T04:34:56.018Z,26.40
2018-01-27T04:37:25.152Z,23.23
2018-01-27T04:39:53.549Z,24.77
2018-01-27T04:42:22.922Z,23.92
2018-01-27T04:44:51.442Z,23.92
2018-01-27T04:47:20.110Z,22.70
2018-01-27T04:49:48.513Z,24.77
2018-01-27T04:52:16.888Z,21.23
2018-01-27T04:54:45.265Z,22.48
2018-01-27T04:57:13.658Z,23.60
2018-01-27T04:59:42.022Z,21.58
2018-01-27T05:02:10.414Z,23.20
2018-01-27T05:04:38.784Z,22.75
2018-01-27T05:07:07.199Z,23.20
2018-01-27T05:09:36.330Z,25.45
2018-01-27T05:12:04.701Z,25.25
2018-01-27T05:14:33.095Z,28.67
2018-01-27T05:17:01.453Z,27.55
2018-01-27T05:19:29.853Z,28.92
2018-01-27T05:21:58.228Z,28.60
2018-01-27T05:24:26.800Z,27.87
2018-01-27T05:26:55.169Z,32.15
2018-01-27T05:29:23.543Z,29.27
2018-01-27T05:31:51.937Z,27.08
2018-01-27T05:34:20.328Z,26.12
2018-01-27T05:36:48.728Z,29.95
2018-01-27T05:39:17.113Z,27.20
2018-01-27T05:41:46.357Z,27.08
2018-01-27T05:44:14.726Z,25.52
2018-01-27T05:46:43.106Z,28.85
2018-01-27T05:49:11.501Z,31.60
2018-01-27T05:51:39.890Z,28.80
2018-01-27T05:54:08.289Z,35.22
2018-01-27T05:56:36.649Z,34.65
2018-01-27T05:59:05.060Z,36.10
2018-01-27T06:01:33.429Z,37.28
2018-01-27T06:04:01.818Z,38.00
2018-01-27T06:06:30.209Z,35.80
2018-01-27T06:08:59.449Z,34.97
2018-01-27T06:11:27.961Z,37.08
2018-01-27T06:13:56.335Z,36.17
2018-01-27T06:16:24.702Z,40.35
2018-01-27T06:18:53.100Z,43.33
2018-01-27T06:21:21.525Z,39.72
2018-01-27T06:23:49.976Z,40.70
2018-01-27T06:26:18.357Z,40.15
2018-01-27T06:28:46.773Z,41.35
2018-01-27T06:31:15.157Z,42.08
2018-01-27T06:33:43.527Z,43.42
2018-01-27T06:36:12.177Z,40.80
2018-01-27T06:38:40.709Z,42.95
2018-01-27T06:41:09.073Z,45.28
2018-01-27T06:43:37.457Z,43.28
2018-01-27T06:46:05.825Z,44.10
2018-01-27T06:48:34.434Z,41.63
2018-01-27T06:51:02.810Z,46.35
2018-01-27T06:53:31.190Z,44.20
2018-01-27T06:56:00.023Z,45.03
2018-01-27T06:58:28.385Z,46.80
2018-01-27T07:00:56.793Z,46.17
2018-01-27T07:03:25.987Z,43.95
2018-01-27T07:05:55.117Z,48.80
2018-01-27T07:08:23.520Z,47.20
2018-01-27T07:10:51.890Z,43.90
2018-01-27T07:13:20.575Z,44.90
2018-01-27T07:15:48.945Z,42.42
2018-01-27T07:18:17.435Z,44.92
2018-01-27T07:20:45.842Z,48.00
2018-01-27T07:23:14.977Z,45.90
2018-01-27T07:25:43.598Z,42.38
2018-01-27T07:28:11.972Z,42.28
2018-01-27T07:30:40.342Z,45.40
2018-01-27T07:33:08.749Z,43.10
2018-01-27T07:35:37.150Z,46.15
2018-01-27T07:38:05.566Z,50.28
2018-01-27T07:40:33.941Z,45.65
2018-01-27T07:43:02.449Z,48.00
2018-01-27T07:45:30.851Z,48.87
2018-01-27T07:47:59.221Z,49.20
2018-01-27T07:50:27.880Z,47.05
2018-01-27T07:52:56.261Z,52.97
2018-01-27T07:55:24.630Z,49.05
2018-01-27T07:57:53.024Z,50.12
2018-01-27T08:00:21.390Z,47.97
2018-01-27T08:02:49.781Z,49.17
2018-01-27T08:05:18.192Z,46.05
2018-01-27T08:07:46.736Z,47.10
2018-01-27T08:10:15.154Z,47.33
2018-01-27T08:12:43.633Z,48.92
2018-01-27T08:15:12.057Z,47.15
2018-01-27T08:17:40.514Z,49.38
2018-01-27T08:20:09.710Z,54.17
2018-01-27T08:22:38.875Z,47.70
2018-01-27T08:25:07.735Z,52.62
2018-01-27T08:27:36.109Z,45.53
2018-01-27T08:30:04.476Z,49.25
2018-01-27T08:32:32.866Z,47.70
2018-01-27T08:35:01.246Z,42.90
2018-01-27T08:37:29.667Z,49.38
2018-01-27T08:39:58.035Z,46.63
2018-01-27T08:42:26.588Z,46.92
2018-01-27T08:44:54.959Z,44.03
2018-01-27T08:47:23.326Z,45.17
2018-01-27T08:49:51.721Z,48.15
2018-01-27T08:52:20.094Z,46.50
2018-01-27T08:54:48.487Z,46.72
2018-01-27T08:57:16.862Z,49.47
2018-01-27T08:59:45.737Z,44.20
2018-01-27T09:02:14.190Z,46.17
2018-01-27T09:04:43.326Z,52.42
2018-01-27T09:07:11.745Z,45.50
2018-01-27T09:09:40.124Z,46.78
2018-01-27T09:12:08.522Z,45.78
2018-01-27T09:14:37.716Z,41.75
2018-01-27T09:17:06.256Z,46.83
2018-01-27T09:19:34.630Z,44.67
2018-01-27T09:22:03.006Z,44.10
2018-01-27T09:24:31.538Z,45.72
2018-01-27T09:26:59.926Z,42.90
2018-01-27T09:29:29.082Z,40.58
2018-01-27T09:31:57.449Z,44.40
2018-01-27T09:34:26.129Z,40.40
2018-01-27T09:36:54.531Z,39.88
2018-01-27T09:39:22.893Z,38.28
2018-01-27T09:41:51.278Z,38.80
2018-01-27T09:44:19.645Z,37.63
2018-01-27T09:46:48.033Z,39.55
2018-01-27T09:49:16.400Z,37.80
2018-01-27T09:51:44.969Z,40.67
2018-01-27T09:54:13.397Z,36.13
2018-01-27T09:56:41.766Z,37.40
2018-01-27T09:59:11.157Z,35.53
2018-01-27T10:01:39.665Z,40.03
2018-01-27T10:04:08.185Z,40.42
2018-01-27T10:06:36.831Z,37.78
2018-01-27T10:09:06.288Z,36.53
2018-01-27T10:11:34.645Z,38.00
2018-01-27T10:14:03.008Z,33.53
2018-01-27T10:16:32.670Z,33.47
2018-01-27T10:19:01.072Z,34.95
2018-01-27T10:21:29.465Z,39.17
2018-01-27T10:23:58.810Z,44.40
2018-01-27T10:26:27.209Z,35.35
2018-01-27T10:28:55.592Z,33.30
2018-01-27T10:31:23.975Z,33.25
2018-01-27T10:33:52.360Z,32.50
2018-01-27T10:36:20.808Z,37.38
2018-01-27T10:38:49.761Z,36.45
2018-01-27T10:41:18.478Z,36.88
2018-01-27T10:43:47.250Z,40.42
2018-01-27T10:46:15.774Z,52.72
2018-01-27T10:48:44.162Z,41.47
2018-01-27T10:51:12.626Z,35.45
2018-01-27T10:53:40.992Z,35.78
2018-01-27T10:56:09.680Z,37.97
2018-01-27T10:58:39.307Z,34.38
2018-01-27T11:01:08.025Z,37.03
2018-01-27T11:03:37.378Z,35.67
2018-01-27T11:06:07.009Z,34.25
2018-01-27T11:08:35.560Z,35.42
2018-01-27T11:11:03.926Z,38.60
2018-01-27T11:13:32.822Z,37.88
2018-01-27T11:16:02.705Z,38.35
2018-01-27T11:18:31.954Z,36.15
2018-01-27T11:21:00.512Z,35.83
2018-01-27T11:23:28.885Z,35.15
2018-01-27T11:25:57.290Z,37.67
2018-01-27T11:28:25.663Z,36.17
2018-01-27T11:30:54.462Z,36.05
2018-01-27T11:33:22.865Z,35.65
2018-01-27T11:35:51.503Z,35.05
2018-01-27T11:38:19.878Z,38.05
2018-01-27T11:40:48.238Z,37.63
2018-01-27T11:43:16.642Z,36.58
2018-01-27T11:45:45.017Z,37.45
2018-01-27T11:48:13.411Z,37.10
2018-01-27T11:50:41.967Z,37.35
2018-01-27T11:53:10.877Z,35.70
2018-01-27T11:55:39.254Z,34.90
2018-01-27T11:58:07.621Z,36.00
2018-01-27T12:00:36.046Z,34.78
2018-01-27T12:03:04.503Z,34.20
2018-01-27T12:05:32.909Z,35.45
2018-01-27T12:08:01.299Z,35.53
2018-01-27T12:10:30.933Z,43.22
2018-01-27T12:12:59.338Z,39.30
2018-01-27T12:15:27.715Z,36.45
2018-01-27T12:17:56.844Z,35.10
2018-01-27T12:20:25.238Z,37.30
2018-01-27T12:22:54.482Z,37.70
2018-01-27T12:25:22.845Z,36.90
2018-01-27T12:27:51.642Z,38.33
2018-01-27T12:30:20.016Z,41.15
2018-01-27T12:32:48.380Z,43.25
2018-01-27T12:35:16.774Z,37.90
2018-01-27T12:37:46.173Z,42.90
2018-01-27T12:40:14.878Z,42.97
2018-01-27T12:42:43.359Z,44.88
2018-01-27T12:45:11.941Z,43.00
2018-01-27T12:47:40.309Z,42.95
2018-01-27T12:50:09.485Z,45.92
2018-01-27T12:52:37.998Z,42.90
2018-01-27T12:55:06.412Z,46.78
2018-01-27T12:57:34.803Z,46.65
2018-01-27T13:00:04.053Z,45.75
2018-01-27T13:02:32.621Z,44.10
2018-01-27T13:05:00.996Z,46.75
2018-01-27T13:07:29.562Z,46.75
2018-01-27T13:09:58.069Z,50.90
2018-01-27T13:12:26.596Z,49.25
2018-01-27T13:14:55.029Z,43.92
2018-01-27T13:17:23.421Z,46.55
2018-01-27T13:19:51.833Z,46.37
2018-01-27T13:22:20.219Z,46.20
2018-01-27T13:24:48.601Z,48.38
2018-01-27T13:27:17.901Z,44.70
2018-01-27T13:29:47.057Z,45.50
2018-01-27T13:32:15.477Z,44.92
2018-01-27T13:34:44.630Z,45.83
2018-01-27T13:37:13.206Z,44.15
2018-01-27T13:39:42.504Z,44.05
2018-01-27T13:42:11.045Z,46.00
2018-01-27T13:44:40.410Z,46.22
2018-01-27T13:47:08.793Z,49.40
2018-01-27T13:49:37.870Z,52.08
2018-01-27T13:52:06.309Z,49.80
2018-01-27T13:54:35.915Z,44.28
2018-01-27T13:57:06.240Z,43.60
2018-01-27T13:59:35.068Z,43.08
2018-01-27T14:02:03.460Z,39.28
2018-01-27T14:04:31.886Z,42.75
2018-01-27T14:07:01.064Z,43.03
2018-01-27T14:09:29.454Z,45.80
2018-01-27T14:11:58.758Z,43.35
2018-01-27T14:14:28.000Z,42.40
2018-01-27T14:16:57.383Z,43.17
2018-01-27T14:19:25.765Z,44.20
2018-01-27T14:21:54.149Z,46.37
2018-01-27T14:24:22.544Z,44.03
2018-01-27T14:26:50.991Z,45.35
2018-01-27T14:29:20.290Z,45.78
2018-01-27T14:31:48.713Z,42.88
2018-01-27T14:34:17.681Z,44.38
2018-01-27T14:36:46.049Z,46.15
2018-01-27T14:39:15.070Z,44.45
2018-01-27T14:41:43.462Z,43.87
2018-01-27T14:44:11.837Z,43.83
2018-01-27T14:46:41.038Z,40.83
2018-01-27T14:49:09.429Z,42.35
2018-01-27T14:51:38.791Z,44.20
2018-01-27T14:54:07.341Z,41.45
2018-01-27T14:56:35.971Z,42.85
2018-01-27T14:59:04.591Z,45.28
2018-01-27T15:01:33.729Z,42.20
2018-01-27T15:04:02.146Z,47.03
2018-01-27T15:06:31.019Z,41.58
2018-01-27T15:08:59.402Z,42.53
2018-01-27T15:11:27.893Z,42.00
2018-01-27T15:13:56.291Z,44.53
2018-01-27T15:16:26.186Z,41.83
2018-01-27T15:18:54.745Z,45.60
2018-01-27T15:21:23.483Z,46.50
2018-01-27T15:23:52.653Z,45.22
2018-01-27T15:26:21.869Z,47.55
2018-01-27T15:28:51.122Z,49.78
2018-01-27T15:31:20.403Z,81.47
2018-01-27T15:33:48.778Z,46.92
2018-01-27T15:36:17.161Z,46.35
2018-01-27T15:38:45.945Z,45.85
2018-01-27T15:41:14.755Z,44.45
2018-01-27T15:43:43.236Z,44.63
2018-01-27T15:46:11.613Z,46.97
2018-01-27T15:48:40.428Z,45.78
2018-01-27T15:51:10.490Z,44.83
2018-01-27T15:53:39.784Z,98.20
2018-01-27T15:56:09.090Z,53.65
2018-01-27T15:58:37.905Z,47.08
2018-01-27T16:01:06.989Z,42.67
2018-01-27T16:03:35.353Z,47.67
2018-01-27T16:06:03.747Z,49.90
2018-01-27T16:08:32.188Z,46.65
2018-01-27T16:11:01.638Z,46.50
2018-01-27T16:13:30.019Z,49.00
2018-01-27T16:15:59.118Z,48.50
2018-01-27T16:18:28.976Z,50.22
2018-01-27T16:20:58.522Z,45.42
2018-01-27T16:23:27.014Z,47.53
2018-01-27T16:25:55.384Z,44.53
2018-01-27T16:28:23.786Z,45.28
2018-01-27T16:30:52.233Z,46.17
2018-01-27T16:33:21.445Z,48.15
2018-01-27T16:35:50.189Z,45.60
2018-01-27T16:38:19.319Z,46.72
2018-01-27T16:40:47.718Z,44.33
2018-01-27T16:43:16.090Z,46.15
2018-01-27T16:45:44.521Z,46.85
2018-01-27T16:48:13.973Z,47.55
2018-01-27T16:50:42.362Z,43.22
2018-01-27T16:53:10.939Z,44.28
2018-01-27T16:55:40.423Z,41.85
2018-01-27T16:58:08.815Z,43.90
2018-01-27T17:00:37.181Z,46.00
2018-01-27T17:03:05.582Z,40.95
2018-01-27T17:05:34.161Z,44.20
2018-01-27T17:08:02.572Z,42.85
2018-01-27T17:10:30.929Z,43.87
2018-01-27T17:12:59.296Z,47.05
2018-01-27T17:15:27.702Z,43.28
2018-01-27T17:17:56.077Z,43.65
2018-01-27T17:20:24.474Z,43.75
2018-01-27T17:22:52.958Z,42.85
2018-01-27T17:25:22.166Z,41.95
2018-01-27T17:27:51.317Z,40.97
2018-01-27T17:30:20.076Z,42.30
2018-01-27T17:32:48.492Z,40.05
2018-01-27T17:35:16.908Z,40.20
2018-01-27T17:37:45.634Z,38.97
2018-01-27T17:40:14.833Z,42.03
2018-01-27T17:42:43.423Z,40.80
2018-01-27T17:45:11.984Z,42.45
2018-01-27T17:47:40.453Z,39.38
2018-01-27T17:50:09.063Z,44.78
2018-01-27T17:52:37.471Z,44.00
2018-01-27T17:55:07.377Z,42.00
2018-01-27T17:57:35.828Z,43.05
2018-01-27T18:00:04.233Z,44.47
2018-01-27T18:02:32.602Z,43.15
2018-01-27T18:05:00.994Z,43.87
2018-01-27T18:07:29.417Z,40.65
2018-01-27T18:09:57.784Z,40.63
2018-01-27T18:12:26.942Z,41.50
2018-01-27T18:14:55.407Z,37.15
2018-01-27T18:17:23.990Z,40.05
2018-01-27T18:19:52.440Z,35.60
2018-01-27T18:22:20.826Z,34.97
2018-01-27T18:24:49.225Z,34.92
2018-01-27T18:27:17.637Z,32.92
2018-01-27T18:29:46.945Z,34.92
2018-01-27T18:32:15.314Z,34.35
2018-01-27T18:34:43.746Z,34.25
2018-01-27T18:37:12.167Z,35.15
2018-01-27T18:39:41.398Z,36.50
2018-01-27T18:42:10.677Z,33.83
2018-01-27T18:44:39.047Z,35.95
2018-01-27T18:47:07.445Z,37.60
2018-01-27T18:49:36.710Z,36.35
2018-01-27T18:52:05.793Z,34.17
2018-01-27T18:54:34.638Z,37.80
2018-01-27T18:57:03.778Z,34.72
2018-01-27T18:59:32.667Z,37.53
2018-01-27T19:02:03.328Z,37.00
2018-01-27T19:04:32.675Z,34.85
2018-01-27T19:07:01.390Z,37.80
2018-01-27T19:09:30.268Z,41.22
2018-01-27T19:11:58.640Z,41.97
2018-01-27T19:14:27.269Z,39.33
2018-01-27T19:16:57.174Z,39.78
2018-01-27T19:19:25.666Z,38.70
2018-01-27T19:21:55.145Z,36.97
2018-01-27T19:24:23.588Z,37.30
2018-01-27T19:26:52.653Z,39.40
2018-01-27T19:29:21.254Z,35.72
2018-01-27T19:31:50.494Z,38.30
2018-01-27T19:34:18.953Z,37.50
2018-01-27T19:36:48.704Z,40.00
2018-01-27T19:39:19.521Z,39.60
2018-01-27T19:41:47.935Z,37.72
2018-01-27T19:44:17.250Z,40.55
2018-01-27T19:46:46.832Z,39.33
2018-01-27T19:49:16.060Z,42.35
2018-01-27T19:51:45.299Z,39.58
2018-01-27T19:54:15.666Z,38.47
2018-01-27T19:56:44.746Z,40.33
2018-01-27T19:59:13.819Z,42.00
2018-01-27T20:01:43.850Z,41.37
2018-01-27T20:04:12.986Z,42.70
2018-01-27T20:06:42.029Z,44.45
2018-01-27T20:09:11.167Z,51.75
2018-01-27T20:11:41.600Z,43.70
2018-01-27T20:14:10.966Z,43.35
2018-01-27T20:16:40.881Z,44.03
2018-01-27T20:19:09.855Z,41.08
2018-01-27T20:21:38.537Z,40.63
2018-01-27T20:24:07.327Z,40.78
2018-01-27T20:26:37.676Z,38.20
2018-01-27T20:29:07.079Z,40.55
2018-01-27T20:31:36.841Z,41.50
2018-01-27T20:34:05.698Z,38.83
2018-01-27T20:36:35.802Z,44.55
2018-01-27T20:39:05.513Z,38.97
2018-01-27T20:41:34.432Z,38.05
2018-01-27T20:44:03.672Z,54.22
2018-01-27T20:46:33.073Z,40.95
2018-01-27T20:49:02.062Z,49.15
2018-01-27T20:51:32.539Z,41.53
2018-01-27T20:54:01.954Z,41.75
2018-01-27T20:56:31.851Z,38.47
2018-01-27T20:59:01.605Z,38.13
2018-01-27T21:01:30.436Z,44.63
2018-01-27T21:03:59.787Z,38.65
2018-01-27T21:06:28.827Z,35.60
2018-01-27T21:08:57.856Z,38.90
2018-01-27T21:11:34.642Z,35.90
2018-01-27T21:14:03.609Z,39.38
2018-01-27T21:16:32.600Z,38.10
2018-01-27T21:19:03.638Z,36.35
2018-01-27T21:21:32.256Z,39.28
2018-01-27T21:24:00.681Z,42.40
2018-01-27T21:26:29.081Z,42.58
2018-01-27T21:28:57.893Z,39.75
2018-01-27T21:31:27.130Z,44.30
2018-01-27T21:33:55.507Z,40.30
2018-01-27T21:36:24.473Z,40.53
2018-01-27T21:38:52.849Z,38.70
2018-01-27T21:41:22.021Z,39.20
2018-01-27T21:43:51.264Z,38.63
2018-01-27T21:46:19.626Z,39.97
2018-01-27T21:48:48.119Z,38.70
2018-01-27T21:51:16.485Z,43.53
2018-01-27T21:53:44.927Z,39.03
2018-01-27T21:56:13.321Z,42.03
2018-01-27T21:58:42.453Z,44.30
2018-01-27T22:01:12.231Z,39.72
2018-01-27T22:03:40.756Z,38.90
2018-01-27T22:06:09.141Z,40.70
2018-01-27T22:08:37.642Z,41.53
2018-01-27T22:11:06.194Z,40.42
2018-01-27T22:13:34.608Z,44.13
2018-01-27T22:16:03.570Z,40.75
2018-01-27T22:18:32.589Z,41.25
2018-01-27T22:21:01.002Z,38.75
2018-01-27T22:23:30.338Z,39.65
2018-01-27T22:25:58.722Z,39.47
2018-01-27T22:28:28.127Z,39.17
2018-01-27T22:30:57.090Z,39.60
2018-01-27T22:33:25.861Z,41.50
2018-01-27T22:35:55.105Z,45.25
2018-01-27T22:38:24.388Z,42.78
2018-01-27T22:40:52.770Z,43.15
2018-01-27T22:43:21.162Z,42.85
2018-01-27T22:45:49.569Z,41.40
2018-01-27T22:48:17.952Z,44.97
2018-01-27T22:50:46.328Z,37.92
2018-01-27T22:53:14.731Z,42.03
2018-01-27T22:55:43.880Z,42.05
2018-01-27T22:58:12.269Z,38.20
2018-01-27T23:00:41.037Z,42.50
2018-01-27T23:03:09.472Z,36.53
2018-01-27T23:05:38.706Z,44.63
2018-01-27T23:08:07.073Z,44.67
2018-01-27T23:10:36.996Z,45.25
2018-01-27T23:13:05.489Z,55.97
2018-01-27T23:15:34.815Z,141.52
2018-01-27T23:18:03.195Z,76.30
2018-01-27T23:20:31.626Z,98.12
2018-01-27T23:23:00.026Z,48.78
2018-01-27T23:25:28.398Z,44.00
2018-01-27T23:27:56.785Z,41.33
2018-01-27T23:30:25.152Z,39.33
2018-01-27T23:32:53.582Z,38.30
2018-01-27T23:35:21.993Z,38.40
2018-01-27T23:37:50.409Z,39.30
2018-01-27T23:40:18.952Z,40.38
2018-01-27T23:42:47.325Z,39.17
2018-01-27T23:45:15.729Z,40.03
2018-01-27T23:47:44.126Z,38.45
2018-01-27T23:50:13.041Z,36.90
2018-01-27T23:52:42.454Z,35.63
2018-01-27T23:55:11.474Z,37.35
2018-01-27T23:57:39.905Z,40.58
